sensor_id;sensor_type;location;lat;lon;timestamp;temperature;humidity
46926;DHT22;32667;48.248;-1.700;2023-06-10T00:00:03;21.20;59.30
46926;DHT22;32667;48.248;-1.700;2023-06-10T00:02:31;21.20;59.30
46926;DHT22;32667;48.248;-1.700;2023-06-10T00:04:59;21.20;59.30
46926;DHT22;32667;48.248;-1.700;2023-06-10T00:07:30;21.20;59.30
46926;DHT22;32667;48.248;-1.700;2023-06-10T00:09:55;21.10;59.40
46926;DHT22;32667;48.248;-1.700;2023-06-10T00:12:24;21.00;59.50
46926;DHT22;32667;48.248;-1.700;2023-06-10T00:14:53;21.00;59.60
46926;DHT22;32667;48.248;-1.700;2023-06-10T00:17:21;21.00;59.60
46926;DHT22;32667;48.248;-1.700;2023-06-10T00:19:51;20.90;59.60
46926;DHT22;32667;48.248;-1.700;2023-06-10T00:22:18;21.00;59.60
46926;DHT22;32667;48.248;-1.700;2023-06-10T00:24:44;21.00;59.50
46926;DHT22;32667;48.248;-1.700;2023-06-10T00:27:09;21.00;59.40
46926;DHT22;32667;48.248;-1.700;2023-06-10T00:29:36;21.10;59.40
46926;DHT22;32667;48.248;-1.700;2023-06-10T00:32:01;21.00;59.30
46926;DHT22;32667;48.248;-1.700;2023-06-10T00:34:29;21.00;59.40
46926;DHT22;32667;48.248;-1.700;2023-06-10T00:36:55;20.90;59.50
46926;DHT22;32667;48.248;-1.700;2023-06-10T00:39:24;20.90;59.60
46926;DHT22;32667;48.248;-1.700;2023-06-10T00:41:49;20.90;59.70
46926;DHT22;32667;48.248;-1.700;2023-06-10T00:44:20;20.80;59.70
46926;DHT22;32667;48.248;-1.700;2023-06-10T00:46:46;20.80;59.80
46926;DHT22;32667;48.248;-1.700;2023-06-10T00:49:12;20.80;59.80
46926;DHT22;32667;48.248;-1.700;2023-06-10T00:51:40;20.80;59.70
46926;DHT22;32667;48.248;-1.700;2023-06-10T00:54:07;20.80;59.70
46926;DHT22;32667;48.248;-1.700;2023-06-10T00:56:40;20.80;59.60
46926;DHT22;32667;48.248;-1.700;2023-06-10T00:59:08;20.90;59.70
46926;DHT22;32667;48.248;-1.700;2023-06-10T01:01:37;20.80;59.60
46926;DHT22;32667;48.248;-1.700;2023-06-10T01:04:06;20.90;59.60
46926;DHT22;32667;48.248;-1.700;2023-06-10T01:09:52;20.90;59.40
46926;DHT22;32667;48.248;-1.700;2023-06-10T01:14:56;21.00;59.30
46926;DHT22;32667;48.248;-1.700;2023-06-10T01:17:24;21.00;59.20
46926;DHT22;32667;48.248;-1.700;2023-06-10T01:20:00;21.00;59.10
46926;DHT22;32667;48.248;-1.700;2023-06-10T01:22:32;21.10;59.10
46926;DHT22;32667;48.248;-1.700;2023-06-10T01:25:02;21.10;59.10
46926;DHT22;32667;48.248;-1.700;2023-06-10T01:27:33;21.10;59.00
46926;DHT22;32667;48.248;-1.700;2023-06-10T01:30:11;21.00;59.00
46926;DHT22;32667;48.248;-1.700;2023-06-10T01:32:45;21.00;59.10
46926;DHT22;32667;48.248;-1.700;2023-06-10T01:35:12;21.00;59.20
46926;DHT22;32667;48.248;-1.700;2023-06-10T01:37:45;21.00;59.20
46926;DHT22;32667;48.248;-1.700;2023-06-10T01:40:13;21.00;59.20
46926;DHT22;32667;48.248;-1.700;2023-06-10T01:42:41;21.00;59.20
46926;DHT22;32667;48.248;-1.700;2023-06-10T01:45:10;21.00;59.20
46926;DHT22;32667;48.248;-1.700;2023-06-10T01:47:35;21.00;59.20
46926;DHT22;32667;48.248;-1.700;2023-06-10T01:50:04;21.00;59.20
46926;DHT22;32667;48.248;-1.700;2023-06-10T01:52:30;21.00;59.30
46926;DHT22;32667;48.248;-1.700;2023-06-10T01:55:00;20.90;59.30
46926;DHT22;32667;48.248;-1.700;2023-06-10T01:57:29;20.90;59.40
46926;DHT22;32667;48.248;-1.700;2023-06-10T01:59:57;20.90;59.50
46926;DHT22;32667;48.248;-1.700;2023-06-10T02:02:22;20.80;59.50
46926;DHT22;32667;48.248;-1.700;2023-06-10T02:04:50;20.80;59.60
46926;DHT22;32667;48.248;-1.700;2023-06-10T02:07:16;20.80;59.50
46926;DHT22;32667;48.248;-1.700;2023-06-10T02:09:42;20.80;59.50
46926;DHT22;32667;48.248;-1.700;2023-06-10T02:12:08;20.80;59.60
46926;DHT22;32667;48.248;-1.700;2023-06-10T02:14:34;20.80;59.50
46926;DHT22;32667;48.248;-1.700;2023-06-10T02:17:05;20.90;59.50
46926;DHT22;32667;48.248;-1.700;2023-06-10T02:19:33;20.90;59.50
46926;DHT22;32667;48.248;-1.700;2023-06-10T02:22:09;20.90;59.40
46926;DHT22;32667;48.248;-1.700;2023-06-10T02:24:36;20.80;59.40
46926;DHT22;32667;48.248;-1.700;2023-06-10T02:27:05;20.80;59.60
46926;DHT22;32667;48.248;-1.700;2023-06-10T02:29:37;20.70;59.60
46926;DHT22;32667;48.248;-1.700;2023-06-10T02:32:03;20.70;59.70
46926;DHT22;32667;48.248;-1.700;2023-06-10T02:34:29;20.60;59.70
46926;DHT22;32667;48.248;-1.700;2023-06-10T02:36:54;20.60;59.80
46926;DHT22;32667;48.248;-1.700;2023-06-10T02:39:23;20.60;59.90
46926;DHT22;32667;48.248;-1.700;2023-06-10T02:41:49;20.60;59.90
46926;DHT22;32667;48.248;-1.700;2023-06-10T02:44:18;20.60;59.90
46926;DHT22;32667;48.248;-1.700;2023-06-10T02:46:44;20.60;59.90
46926;DHT22;32667;48.248;-1.700;2023-06-10T02:49:10;20.60;59.80
46926;DHT22;32667;48.248;-1.700;2023-06-10T02:51:36;20.60;59.80
46926;DHT22;32667;48.248;-1.700;2023-06-10T02:54:02;20.60;59.70
46926;DHT22;32667;48.248;-1.700;2023-06-10T02:56:30;20.60;59.70
46926;DHT22;32667;48.248;-1.700;2023-06-10T02:59:24;20.70;59.70
46926;DHT22;32667;48.248;-1.700;2023-06-10T03:01:52;20.70;59.70
46926;DHT22;32667;48.248;-1.700;2023-06-10T03:04:18;20.60;59.70
46926;DHT22;32667;48.248;-1.700;2023-06-10T03:06:44;20.60;59.80
46926;DHT22;32667;48.248;-1.700;2023-06-10T03:09:12;20.60;59.80
46926;DHT22;32667;48.248;-1.700;2023-06-10T03:11:39;20.60;59.80
46926;DHT22;32667;48.248;-1.700;2023-06-10T03:14:04;20.60;59.70
46926;DHT22;32667;48.248;-1.700;2023-06-10T03:16:32;20.60;59.70
46926;DHT22;32667;48.248;-1.700;2023-06-10T03:18:58;20.60;59.70
46926;DHT22;32667;48.248;-1.700;2023-06-10T03:21:57;20.60;59.80
46926;DHT22;32667;48.248;-1.700;2023-06-10T03:24:35;20.60;60.00
46926;DHT22;32667;48.248;-1.700;2023-06-10T03:27:25;20.50;59.90
46926;DHT22;32667;48.248;-1.700;2023-06-10T03:29:54;20.60;59.90
46926;DHT22;32667;48.248;-1.700;2023-06-10T03:32:20;20.60;59.80
46926;DHT22;32667;48.248;-1.700;2023-06-10T03:34:53;20.60;59.80
46926;DHT22;32667;48.248;-1.700;2023-06-10T03:37:22;20.60;59.70
46926;DHT22;32667;48.248;-1.700;2023-06-10T03:39:53;20.70;59.70
46926;DHT22;32667;48.248;-1.700;2023-06-10T03:42:21;20.70;59.60
46926;DHT22;32667;48.248;-1.700;2023-06-10T03:44:47;20.70;59.60
46926;DHT22;32667;48.248;-1.700;2023-06-10T03:47:13;20.70;59.60
46926;DHT22;32667;48.248;-1.700;2023-06-10T03:49:39;20.70;59.60
46926;DHT22;32667;48.248;-1.700;2023-06-10T03:52:06;20.70;59.60
46926;DHT22;32667;48.248;-1.700;2023-06-10T03:54:34;20.70;59.70
46926;DHT22;32667;48.248;-1.700;2023-06-10T03:57:01;20.70;59.70
46926;DHT22;32667;48.248;-1.700;2023-06-10T03:59:26;20.70;59.60
46926;DHT22;32667;48.248;-1.700;2023-06-10T04:01:54;20.70;59.60
46926;DHT22;32667;48.248;-1.700;2023-06-10T04:04:20;20.70;59.70
46926;DHT22;32667;48.248;-1.700;2023-06-10T04:06:54;20.60;59.80
46926;DHT22;32667;48.248;-1.700;2023-06-10T04:09:22;20.60;60.00
46926;DHT22;32667;48.248;-1.700;2023-06-10T04:11:48;20.40;60.10
46926;DHT22;32667;48.248;-1.700;2023-06-10T04:14:15;20.40;60.20
46926;DHT22;32667;48.248;-1.700;2023-06-10T04:16:44;20.30;60.30
46926;DHT22;32667;48.248;-1.700;2023-06-10T04:19:12;20.30;60.40
46926;DHT22;32667;48.248;-1.700;2023-06-10T04:21:37;20.20;60.40
46926;DHT22;32667;48.248;-1.700;2023-06-10T04:24:06;20.20;60.40
46926;DHT22;32667;48.248;-1.700;2023-06-10T04:26:35;20.20;60.40
46926;DHT22;32667;48.248;-1.700;2023-06-10T04:29:03;20.20;60.50
46926;DHT22;32667;48.248;-1.700;2023-06-10T04:31:31;20.20;60.40
46926;DHT22;32667;48.248;-1.700;2023-06-10T04:33:59;20.20;60.40
46926;DHT22;32667;48.248;-1.700;2023-06-10T04:36:26;20.20;60.40
46926;DHT22;32667;48.248;-1.700;2023-06-10T04:38:52;20.20;60.40
46926;DHT22;32667;48.248;-1.700;2023-06-10T04:41:20;20.20;60.40
46926;DHT22;32667;48.248;-1.700;2023-06-10T04:43:45;20.20;60.30
46926;DHT22;32667;48.248;-1.700;2023-06-10T04:46:11;20.20;60.30
46926;DHT22;32667;48.248;-1.700;2023-06-10T04:48:38;20.20;60.30
46926;DHT22;32667;48.248;-1.700;2023-06-10T04:51:07;20.20;60.30
46926;DHT22;32667;48.248;-1.700;2023-06-10T04:53:33;20.20;60.20
46926;DHT22;32667;48.248;-1.700;2023-06-10T04:56:04;20.20;60.20
46926;DHT22;32667;48.248;-1.700;2023-06-10T04:58:30;20.20;60.20
46926;DHT22;32667;48.248;-1.700;2023-06-10T05:00:58;20.20;60.20
46926;DHT22;32667;48.248;-1.700;2023-06-10T05:03:31;20.20;60.20
46926;DHT22;32667;48.248;-1.700;2023-06-10T05:05:56;20.30;60.10
46926;DHT22;32667;48.248;-1.700;2023-06-10T05:08:22;20.40;60.10
46926;DHT22;32667;48.248;-1.700;2023-06-10T05:10:48;20.40;60.00
46926;DHT22;32667;48.248;-1.700;2023-06-10T05:13:13;20.50;59.90
46926;DHT22;32667;48.248;-1.700;2023-06-10T05:15:39;20.50;59.90
46926;DHT22;32667;48.248;-1.700;2023-06-10T05:18:10;20.60;59.70
46926;DHT22;32667;48.248;-1.700;2023-06-10T05:20:36;20.70;59.70
46926;DHT22;32667;48.248;-1.700;2023-06-10T05:23:02;20.60;59.70
46926;DHT22;32667;48.248;-1.700;2023-06-10T05:25:30;20.60;59.70
46926;DHT22;32667;48.248;-1.700;2023-06-10T05:27:59;20.60;59.80
46926;DHT22;32667;48.248;-1.700;2023-06-10T05:30:25;20.70;59.80
46926;DHT22;32667;48.248;-1.700;2023-06-10T05:32:54;20.60;59.80
46926;DHT22;32667;48.248;-1.700;2023-06-10T05:35:24;20.70;59.80
46926;DHT22;32667;48.248;-1.700;2023-06-10T05:37:54;20.70;59.80
46926;DHT22;32667;48.248;-1.700;2023-06-10T05:40:20;20.70;59.80
46926;DHT22;32667;48.248;-1.700;2023-06-10T05:42:49;20.70;59.90
46926;DHT22;32667;48.248;-1.700;2023-06-10T05:45:15;20.70;59.80
46926;DHT22;32667;48.248;-1.700;2023-06-10T05:47:43;20.80;59.70
46926;DHT22;32667;48.248;-1.700;2023-06-10T05:50:09;20.80;59.60
46926;DHT22;32667;48.248;-1.700;2023-06-10T05:52:36;20.90;59.50
46926;DHT22;32667;48.248;-1.700;2023-06-10T05:55:05;20.90;59.50
46926;DHT22;32667;48.248;-1.700;2023-06-10T05:57:31;20.90;59.60
46926;DHT22;32667;48.248;-1.700;2023-06-10T05:59:57;20.90;59.60
46926;DHT22;32667;48.248;-1.700;2023-06-10T06:02:23;20.90;59.70
46926;DHT22;32667;48.248;-1.700;2023-06-10T06:04:51;20.80;59.80
46926;DHT22;32667;48.248;-1.700;2023-06-10T06:07:19;20.80;59.90
46926;DHT22;32667;48.248;-1.700;2023-06-10T06:09:47;20.70;60.00
46926;DHT22;32667;48.248;-1.700;2023-06-10T06:12:12;20.70;60.00
46926;DHT22;32667;48.248;-1.700;2023-06-10T06:14:38;20.80;60.00
46926;DHT22;32667;48.248;-1.700;2023-06-10T06:17:07;20.80;60.00
46926;DHT22;32667;48.248;-1.700;2023-06-10T06:19:33;20.80;59.90
46926;DHT22;32667;48.248;-1.700;2023-06-10T06:22:01;20.80;59.90
46926;DHT22;32667;48.248;-1.700;2023-06-10T06:24:28;20.80;59.90
46926;DHT22;32667;48.248;-1.700;2023-06-10T06:27:05;20.80;59.90
46926;DHT22;32667;48.248;-1.700;2023-06-10T06:29:38;20.80;59.90
46926;DHT22;32667;48.248;-1.700;2023-06-10T06:32:04;20.80;59.90
46926;DHT22;32667;48.248;-1.700;2023-06-10T06:34:33;20.80;60.00
46926;DHT22;32667;48.248;-1.700;2023-06-10T06:36:59;20.80;59.90
46926;DHT22;32667;48.248;-1.700;2023-06-10T06:39:25;20.90;59.90
46926;DHT22;32667;48.248;-1.700;2023-06-10T06:41:53;20.90;59.80
46926;DHT22;32667;48.248;-1.700;2023-06-10T06:44:19;21.00;59.70
46926;DHT22;32667;48.248;-1.700;2023-06-10T06:46:47;21.10;59.60
46926;DHT22;32667;48.248;-1.700;2023-06-10T06:49:13;21.20;59.50
46926;DHT22;32667;48.248;-1.700;2023-06-10T06:51:41;21.20;59.40
46926;DHT22;32667;48.248;-1.700;2023-06-10T06:54:09;21.20;59.40
46926;DHT22;32667;48.248;-1.700;2023-06-10T06:56:35;21.20;59.40
46926;DHT22;32667;48.248;-1.700;2023-06-10T06:59:01;21.30;59.40
46926;DHT22;32667;48.248;-1.700;2023-06-10T07:01:26;21.30;59.40
46926;DHT22;32667;48.248;-1.700;2023-06-10T07:03:52;21.30;59.40
46926;DHT22;32667;48.248;-1.700;2023-06-10T07:06:20;21.30;59.30
46926;DHT22;32667;48.248;-1.700;2023-06-10T07:08:49;21.30;59.30
46926;DHT22;32667;48.248;-1.700;2023-06-10T07:11:22;21.30;59.40
46926;DHT22;32667;48.248;-1.700;2023-06-10T07:13:48;21.30;59.50
46926;DHT22;32667;48.248;-1.700;2023-06-10T07:16:14;21.30;59.40
46926;DHT22;32667;48.248;-1.700;2023-06-10T07:18:40;21.40;59.40
46926;DHT22;32667;48.248;-1.700;2023-06-10T07:21:09;21.40;60.00
46926;DHT22;32667;48.248;-1.700;2023-06-10T07:23:35;21.40;59.40
46926;DHT22;32667;48.248;-1.700;2023-06-10T07:26:08;21.50;59.30
46926;DHT22;32667;48.248;-1.700;2023-06-10T07:28:40;21.50;59.30
46926;DHT22;32667;48.248;-1.700;2023-06-10T07:31:07;21.50;59.20
46926;DHT22;32667;48.248;-1.700;2023-06-10T07:33:40;21.60;59.30
46926;DHT22;32667;48.248;-1.700;2023-06-10T07:36:09;21.60;59.10
46926;DHT22;32667;48.248;-1.700;2023-06-10T07:38:35;21.70;59.10
46926;DHT22;32667;48.248;-1.700;2023-06-10T07:41:01;21.70;59.00
46926;DHT22;32667;48.248;-1.700;2023-06-10T07:43:27;21.80;59.00
46926;DHT22;32667;48.248;-1.700;2023-06-10T07:45:56;21.80;59.00
46926;DHT22;32667;48.248;-1.700;2023-06-10T07:48:24;21.80;59.10
46926;DHT22;32667;48.248;-1.700;2023-06-10T07:53:21;21.70;59.10
46926;DHT22;32667;48.248;-1.700;2023-06-10T07:55:47;21.70;59.30
46926;DHT22;32667;48.248;-1.700;2023-06-10T07:58:14;21.70;59.40
46926;DHT22;32667;48.248;-1.700;2023-06-10T08:00:43;21.70;59.40
46926;DHT22;32667;48.248;-1.700;2023-06-10T08:03:28;21.70;59.40
46926;DHT22;32667;48.248;-1.700;2023-06-10T08:05:59;21.80;59.30
46926;DHT22;32667;48.248;-1.700;2023-06-10T08:08:25;21.80;59.30
46926;DHT22;32667;48.248;-1.700;2023-06-10T08:10:53;21.80;59.30
46926;DHT22;32667;48.248;-1.700;2023-06-10T08:13:19;21.80;59.30
46926;DHT22;32667;48.248;-1.700;2023-06-10T08:15:48;21.80;59.90
46926;DHT22;32667;48.248;-1.700;2023-06-10T08:18:22;21.80;59.30
46926;DHT22;32667;48.248;-1.700;2023-06-10T08:20:48;21.80;59.30
46926;DHT22;32667;48.248;-1.700;2023-06-10T08:23:16;21.80;59.30
46926;DHT22;32667;48.248;-1.700;2023-06-10T08:25:42;21.80;59.30
46926;DHT22;32667;48.248;-1.700;2023-06-10T08:28:08;21.80;59.30
46926;DHT22;32667;48.248;-1.700;2023-06-10T08:30:37;21.80;59.40
46926;DHT22;32667;48.248;-1.700;2023-06-10T08:33:03;21.80;59.40
46926;DHT22;32667;48.248;-1.700;2023-06-10T08:35:48;21.80;59.40
46926;DHT22;32667;48.248;-1.700;2023-06-10T08:38:16;21.80;59.40
46926;DHT22;32667;48.248;-1.700;2023-06-10T08:40:45;21.80;59.40
46926;DHT22;32667;48.248;-1.700;2023-06-10T08:43:34;21.80;59.40
46926;DHT22;32667;48.248;-1.700;2023-06-10T08:46:03;21.80;59.40
46926;DHT22;32667;48.248;-1.700;2023-06-10T08:48:29;21.80;59.40
46926;DHT22;32667;48.248;-1.700;2023-06-10T08:50:57;21.90;59.40
46926;DHT22;32667;48.248;-1.700;2023-06-10T08:53:24;21.90;59.30
46926;DHT22;32667;48.248;-1.700;2023-06-10T08:55:55;22.00;59.30
46926;DHT22;32667;48.248;-1.700;2023-06-10T08:58:25;22.00;59.20
46926;DHT22;32667;48.248;-1.700;2023-06-10T09:00:54;22.00;59.20
46926;DHT22;32667;48.248;-1.700;2023-06-10T09:03:21;22.00;59.10
46926;DHT22;32667;48.248;-1.700;2023-06-10T09:05:49;22.00;59.10
46926;DHT22;32667;48.248;-1.700;2023-06-10T09:08:16;22.10;59.10
46926;DHT22;32667;48.248;-1.700;2023-06-10T09:10:42;22.00;59.10
46926;DHT22;32667;48.248;-1.700;2023-06-10T09:13:08;22.00;59.20
46926;DHT22;32667;48.248;-1.700;2023-06-10T09:15:34;22.00;59.30
46926;DHT22;32667;48.248;-1.700;2023-06-10T09:18:03;22.00;59.30
46926;DHT22;32667;48.248;-1.700;2023-06-10T09:20:39;22.00;59.40
46926;DHT22;32667;48.248;-1.700;2023-06-10T09:23:05;22.00;59.40
46926;DHT22;32667;48.248;-1.700;2023-06-10T09:25:38;22.00;59.40
46926;DHT22;32667;48.248;-1.700;2023-06-10T09:28:14;22.10;59.40
46926;DHT22;32667;48.248;-1.700;2023-06-10T09:30:43;22.10;59.30
46926;DHT22;32667;48.248;-1.700;2023-06-10T09:33:15;22.20;59.20
46926;DHT22;32667;48.248;-1.700;2023-06-10T09:35:48;22.30;59.00
46926;DHT22;32667;48.248;-1.700;2023-06-10T09:38:28;22.40;59.00
46926;DHT22;32667;48.248;-1.700;2023-06-10T09:40:58;22.40;58.90
46926;DHT22;32667;48.248;-1.700;2023-06-10T09:43:42;22.40;58.90
46926;DHT22;32667;48.248;-1.700;2023-06-10T09:46:19;22.50;58.90
46926;DHT22;32667;48.248;-1.700;2023-06-10T09:48:49;22.40;58.90
46926;DHT22;32667;48.248;-1.700;2023-06-10T09:51:20;22.40;59.00
46926;DHT22;32667;48.248;-1.700;2023-06-10T09:53:54;22.30;59.10
46926;DHT22;32667;48.248;-1.700;2023-06-10T09:56:20;22.20;59.30
46926;DHT22;32667;48.248;-1.700;2023-06-10T09:58:53;22.10;59.40
46926;DHT22;32667;48.248;-1.700;2023-06-10T10:01:18;22.10;59.60
46926;DHT22;32667;48.248;-1.700;2023-06-10T10:03:51;22.00;59.70
46926;DHT22;32667;48.248;-1.700;2023-06-10T10:06:19;22.00;59.70
46926;DHT22;32667;48.248;-1.700;2023-06-10T10:08:50;22.10;59.70
46926;DHT22;32667;48.248;-1.700;2023-06-10T10:11:17;22.20;59.60
46926;DHT22;32667;48.248;-1.700;2023-06-10T10:13:48;22.20;59.50
46926;DHT22;32667;48.248;-1.700;2023-06-10T10:16:30;22.30;60.00
46926;DHT22;32667;48.248;-1.700;2023-06-10T10:19:03;22.40;59.40
46926;DHT22;32667;48.248;-1.700;2023-06-10T10:21:37;22.40;59.20
46926;DHT22;32667;48.248;-1.700;2023-06-10T10:24:20;22.60;59.10
46926;DHT22;32667;48.248;-1.700;2023-06-10T10:26:57;22.70;58.90
46926;DHT22;32667;48.248;-1.700;2023-06-10T10:29:30;22.90;58.60
46926;DHT22;32667;48.248;-1.700;2023-06-10T10:32:00;23.10;58.40
46926;DHT22;32667;48.248;-1.700;2023-06-10T10:34:53;23.30;58.80
46926;DHT22;32667;48.248;-1.700;2023-06-10T10:37:22;23.40;58.00
46926;DHT22;32667;48.248;-1.700;2023-06-10T10:39:49;23.40;57.90
46926;DHT22;32667;48.248;-1.700;2023-06-10T10:42:16;23.50;58.00
46926;DHT22;32667;48.248;-1.700;2023-06-10T10:44:51;23.60;58.00
46926;DHT22;32667;48.248;-1.700;2023-06-10T10:47:21;23.60;58.00
46926;DHT22;32667;48.248;-1.700;2023-06-10T10:49:59;23.70;58.10
46926;DHT22;32667;48.248;-1.700;2023-06-10T10:52:53;23.60;58.10
46926;DHT22;32667;48.248;-1.700;2023-06-10T10:55:29;23.70;58.30
46926;DHT22;32667;48.248;-1.700;2023-06-10T10:58:06;23.70;58.40
46926;DHT22;32667;48.248;-1.700;2023-06-10T11:00:43;23.70;58.40
46926;DHT22;32667;48.248;-1.700;2023-06-10T11:03:14;23.70;58.40
46926;DHT22;32667;48.248;-1.700;2023-06-10T11:05:46;23.70;58.40
46926;DHT22;32667;48.248;-1.700;2023-06-10T11:11:14;23.90;58.30
46926;DHT22;32667;48.248;-1.700;2023-06-10T11:16:42;23.90;58.20
46926;DHT22;32667;48.248;-1.700;2023-06-10T11:19:11;23.90;58.20
46926;DHT22;32667;48.248;-1.700;2023-06-10T11:22:01;23.90;58.20
46926;DHT22;32667;48.248;-1.700;2023-06-10T11:24:29;23.90;58.30
46926;DHT22;32667;48.248;-1.700;2023-06-10T11:29:30;23.70;58.50
46926;DHT22;32667;48.248;-1.700;2023-06-10T11:31:56;23.70;58.70
46926;DHT22;32667;48.248;-1.700;2023-06-10T11:34:23;23.60;58.70
46926;DHT22;32667;48.248;-1.700;2023-06-10T11:36:51;23.70;58.80
46926;DHT22;32667;48.248;-1.700;2023-06-10T11:39:18;23.60;58.90
46926;DHT22;32667;48.248;-1.700;2023-06-10T11:41:45;23.60;59.00
46926;DHT22;32667;48.248;-1.700;2023-06-10T11:44:14;23.60;58.90
46926;DHT22;32667;48.248;-1.700;2023-06-10T11:46:41;23.60;58.90
46926;DHT22;32667;48.248;-1.700;2023-06-10T11:49:11;23.60;58.90
46926;DHT22;32667;48.248;-1.700;2023-06-10T11:51:39;23.60;58.90
46926;DHT22;32667;48.248;-1.700;2023-06-10T11:54:09;23.60;58.90
46926;DHT22;32667;48.248;-1.700;2023-06-10T11:56:35;23.60;58.90
46926;DHT22;32667;48.248;-1.700;2023-06-10T11:59:05;23.60;58.90
46926;DHT22;32667;48.248;-1.700;2023-06-10T12:01:34;23.80;58.80
46926;DHT22;32667;48.248;-1.700;2023-06-10T12:06:48;23.90;58.50
46926;DHT22;32667;48.248;-1.700;2023-06-10T12:09:34;24.10;58.40
46926;DHT22;32667;48.248;-1.700;2023-06-10T12:12:06;24.10;58.20
46926;DHT22;32667;48.248;-1.700;2023-06-10T12:14:59;24.20;58.10
46926;DHT22;32667;48.248;-1.700;2023-06-10T12:20:00;24.40;58.00
46926;DHT22;32667;48.248;-1.700;2023-06-10T12:22:29;24.50;57.90
46926;DHT22;32667;48.248;-1.700;2023-06-10T12:25:03;24.60;57.70
46926;DHT22;32667;48.248;-1.700;2023-06-10T12:27:30;24.80;57.60
46926;DHT22;32667;48.248;-1.700;2023-06-10T12:29:58;24.90;57.50
46926;DHT22;32667;48.248;-1.700;2023-06-10T12:33:01;25.20;57.30
46926;DHT22;32667;48.248;-1.700;2023-06-10T12:35:29;25.30;57.00
46926;DHT22;32667;48.248;-1.700;2023-06-10T12:38:03;25.40;56.90
46926;DHT22;32667;48.248;-1.700;2023-06-10T12:40:38;25.50;56.90
46926;DHT22;32667;48.248;-1.700;2023-06-10T12:43:06;25.80;56.90
46926;DHT22;32667;48.248;-1.700;2023-06-10T12:45:42;25.90;56.60
46926;DHT22;32667;48.248;-1.700;2023-06-10T12:48:18;26.00;56.50
46926;DHT22;32667;48.248;-1.700;2023-06-10T12:50:46;26.00;56.60
46926;DHT22;32667;48.248;-1.700;2023-06-10T12:53:12;26.10;56.70
46926;DHT22;32667;48.248;-1.700;2023-06-10T12:55:46;26.00;56.70
46926;DHT22;32667;48.248;-1.700;2023-06-10T12:58:15;26.10;56.90
46926;DHT22;32667;48.248;-1.700;2023-06-10T13:00:45;26.10;57.00
46926;DHT22;32667;48.248;-1.700;2023-06-10T13:03:12;26.00;57.60
46926;DHT22;32667;48.248;-1.700;2023-06-10T13:05:41;26.10;57.20
46926;DHT22;32667;48.248;-1.700;2023-06-10T13:08:08;26.10;57.20
46926;DHT22;32667;48.248;-1.700;2023-06-10T13:10:36;26.20;57.10
46926;DHT22;32667;48.248;-1.700;2023-06-10T13:13:03;26.20;57.10
46926;DHT22;32667;48.248;-1.700;2023-06-10T13:15:32;26.20;57.20
46926;DHT22;32667;48.248;-1.700;2023-06-10T13:18:07;26.20;57.30
46926;DHT22;32667;48.248;-1.700;2023-06-10T13:20:36;26.20;57.40
46926;DHT22;32667;48.248;-1.700;2023-06-10T13:23:25;26.20;57.40
46926;DHT22;32667;48.248;-1.700;2023-06-10T13:25:50;26.20;57.40
46926;DHT22;32667;48.248;-1.700;2023-06-10T13:28:19;26.20;57.40
46926;DHT22;32667;48.248;-1.700;2023-06-10T13:30:45;26.30;57.30
46926;DHT22;32667;48.248;-1.700;2023-06-10T13:33:11;26.50;57.20
46926;DHT22;32667;48.248;-1.700;2023-06-10T13:35:37;26.60;57.10
46926;DHT22;32667;48.248;-1.700;2023-06-10T13:38:06;26.60;57.00
46926;DHT22;32667;48.248;-1.700;2023-06-10T13:40:35;26.70;57.10
46926;DHT22;32667;48.248;-1.700;2023-06-10T13:43:01;26.70;57.10
46926;DHT22;32667;48.248;-1.700;2023-06-10T13:45:28;26.60;57.20
46926;DHT22;32667;48.248;-1.700;2023-06-10T13:47:54;26.60;57.40
46926;DHT22;32667;48.248;-1.700;2023-06-10T13:50:20;26.50;57.50
46926;DHT22;32667;48.248;-1.700;2023-06-10T13:52:46;26.50;57.50
46926;DHT22;32667;48.248;-1.700;2023-06-10T13:55:14;26.40;57.50
46926;DHT22;32667;48.248;-1.700;2023-06-10T13:57:45;26.40;57.60
46926;DHT22;32667;48.248;-1.700;2023-06-10T14:00:11;26.50;57.60
46926;DHT22;32667;48.248;-1.700;2023-06-10T14:02:40;26.50;57.60
46926;DHT22;32667;48.248;-1.700;2023-06-10T14:05:06;26.50;57.70
46926;DHT22;32667;48.248;-1.700;2023-06-10T14:07:36;26.40;57.80
46926;DHT22;32667;48.248;-1.700;2023-06-10T14:10:03;26.20;57.90
46926;DHT22;32667;48.248;-1.700;2023-06-10T14:12:29;26.00;58.30
46926;DHT22;32667;48.248;-1.700;2023-06-10T14:14:58;25.80;58.60
46926;DHT22;32667;48.248;-1.700;2023-06-10T14:17:26;25.70;58.70
46926;DHT22;32667;48.248;-1.700;2023-06-10T14:19:54;25.60;58.80
46926;DHT22;32667;48.248;-1.700;2023-06-10T14:22:20;25.60;58.90
46926;DHT22;32667;48.248;-1.700;2023-06-10T14:24:49;25.50;58.80
46926;DHT22;32667;48.248;-1.700;2023-06-10T14:27:14;25.50;58.90
46926;DHT22;32667;48.248;-1.700;2023-06-10T14:29:40;25.50;58.90
46926;DHT22;32667;48.248;-1.700;2023-06-10T14:32:07;25.50;58.80
46926;DHT22;32667;48.248;-1.700;2023-06-10T14:34:35;25.50;58.80
46926;DHT22;32667;48.248;-1.700;2023-06-10T14:37:01;25.50;58.80
46926;DHT22;32667;48.248;-1.700;2023-06-10T14:39:32;25.50;58.60
46926;DHT22;32667;48.248;-1.700;2023-06-10T14:42:16;25.60;58.40
46926;DHT22;32667;48.248;-1.700;2023-06-10T14:44:41;25.70;58.40
46926;DHT22;32667;48.248;-1.700;2023-06-10T14:47:10;25.80;58.30
46926;DHT22;32667;48.248;-1.700;2023-06-10T14:49:35;25.80;58.20
46926;DHT22;32667;48.248;-1.700;2023-06-10T14:52:04;25.90;58.10
46926;DHT22;32667;48.248;-1.700;2023-06-10T14:54:32;25.90;58.10
46926;DHT22;32667;48.248;-1.700;2023-06-10T14:57:00;25.90;58.00
46926;DHT22;32667;48.248;-1.700;2023-06-10T14:59:29;26.00;58.00
46926;DHT22;32667;48.248;-1.700;2023-06-10T15:01:57;26.20;57.90
46926;DHT22;32667;48.248;-1.700;2023-06-10T15:04:28;26.20;57.70
46926;DHT22;32667;48.248;-1.700;2023-06-10T15:09:22;26.30;57.70
46926;DHT22;32667;48.248;-1.700;2023-06-10T15:11:48;26.20;57.80
46926;DHT22;32667;48.248;-1.700;2023-06-10T15:14:21;26.20;57.90
46926;DHT22;32667;48.248;-1.700;2023-06-10T15:17:05;26.20;57.90
46926;DHT22;32667;48.248;-1.700;2023-06-10T15:19:30;26.30;57.70
46926;DHT22;32667;48.248;-1.700;2023-06-10T15:21:59;26.50;57.80
46926;DHT22;32667;48.248;-1.700;2023-06-10T15:24:28;26.60;57.60
46926;DHT22;32667;48.248;-1.700;2023-06-10T15:26:54;26.80;57.40
46926;DHT22;32667;48.248;-1.700;2023-06-10T15:29:19;26.90;57.30
46926;DHT22;32667;48.248;-1.700;2023-06-10T15:31:48;27.00;57.30
46926;DHT22;32667;48.248;-1.700;2023-06-10T15:36:50;27.10;57.20
46926;DHT22;32667;48.248;-1.700;2023-06-10T15:39:15;27.20;57.10
46926;DHT22;32667;48.248;-1.700;2023-06-10T15:41:44;27.30;57.10
46926;DHT22;32667;48.248;-1.700;2023-06-10T15:44:31;27.40;57.00
46926;DHT22;32667;48.248;-1.700;2023-06-10T15:46:57;27.50;56.90
46926;DHT22;32667;48.248;-1.700;2023-06-10T15:49:25;27.50;56.80
46926;DHT22;32667;48.248;-1.700;2023-06-10T15:51:54;27.50;57.00
46926;DHT22;32667;48.248;-1.700;2023-06-10T15:54:27;27.30;57.20